Almagrundet, Sweden

1:43 AM CEST on August 26, 2016 (GMT +0200)
Sandhamn Trouville | | Change Station

Elev 10 ft 59.28 °N, 18.93 °E | Updated 13 minutes ago

Clear
Clear
61.5 °F
Feels Like 61.5 °F
N
0.0
Wind Variable Wind from North

Today
High -- | Low -- °F
--% Chance of Precip.
Yesterday
High -- | Low -- °F
Precip. -- in
Pressure 30.04 in
Visibility 6.2 miles
Clouds
Dew Point 58 °F
Humidity 90%
Rainfall Not available.
Snow Depth Not available.
5:27 AM 8:01 PM
Last Quarter, 41% visible
METAR ESSB 252320Z AUTO 00000KT 9999 NCD 17/16 Q1017
Pressure 30.04 in
Visibility 6.2 miles
Clouds
Dew Point 58 °F
Humidity 90%
Rainfall Not available.
Snow Depth Not available.
5:27 AM 8:01 PM
Last Quarter, 41% visible
METAR ESSB 252320Z AUTO 00000KT 9999 NCD 17/16 Q1017

10-Day Weather Forecast

×

Almanac

Astronomy

Aug. 26, 2016 Rise Set
Actual Time
Civil Twilight
Nautical Twilight
Astronomical Twilight
Moon
Length of Visible Light
Length of Day
Tomorrow will be .
, % of the Moon is Illuminated

Today's Extremes

Country Highs Country Lows

Community

WunderPhotos

Upload Photos

1,934,967 photos uploaded!

WunderBlog® & News

Nearby

Air Quality

  Air Quality AQ Index Pollutant
Not available.

Snow Depth

Station Depth Elevation

Earthquake Activity

City Distance Mag. Time & Date
Minimum magnitude displayed is 2.5.

Coastal Water Temperatures

Place Temperature

Stations

Nearby Weather Stations

Station Location Temp. Windchill Dew Point Humidity Wind Precip. Elev Updated Type